createdAt,value
2023-12-29T00:00:31.622Z,99668.13
2023-12-29T00:02:58.806Z,99668.13
2023-12-29T00:05:26.120Z,99662.00
2023-12-29T00:07:53.074Z,99663.69
2023-12-29T00:10:20.520Z,99657.63
2023-12-29T00:12:48.514Z,99655.84
2023-12-29T00:15:19.862Z,99660.19
2023-12-29T00:17:47.991Z,99648.91
2023-12-29T00:20:28.787Z,99654.97
2023-12-29T00:23:01.535Z,99645.38
2023-12-29T00:25:28.554Z,99641.84
2023-12-29T00:27:56.058Z,99637.47
2023-12-29T00:30:32.493Z,99636.59
2023-12-29T00:33:06.810Z,99641.78
2023-12-29T00:35:38.606Z,99639.16
2023-12-29T00:38:07.152Z,99646.94
2023-12-29T00:40:34.810Z,99643.37
2023-12-29T00:43:02.480Z,99638.97
2023-12-29T00:45:33.969Z,99638.09
2023-12-29T00:48:02.258Z,99632.84
2023-12-29T00:50:30.342Z,99639.72
2023-12-29T00:52:58.074Z,99630.25
2023-12-29T00:55:25.363Z,99638.03
2023-12-29T00:57:52.891Z,99635.50
2023-12-29T01:00:20.489Z,99631.12
2023-12-29T01:02:47.688Z,99628.53
2023-12-29T01:05:21.002Z,99630.25
2023-12-29T01:07:48.192Z,99626.78
2023-12-29T01:10:15.957Z,99626.75
2023-12-29T01:12:44.744Z,99636.25
2023-12-29T01:15:12.060Z,99638.75
2023-12-29T01:17:39.576Z,99637.13
2023-12-29T01:20:09.198Z,99642.41
2023-12-29T01:22:36.667Z,99638.09
2023-12-29T01:25:04.793Z,99642.37
2023-12-29T01:27:31.808Z,99631.91
2023-12-29T01:30:00.985Z,99628.37
2023-12-29T01:32:31.100Z,99637.03
2023-12-29T01:34:58.939Z,99623.12
2023-12-29T01:37:26.728Z,99636.19
2023-12-29T01:39:54.244Z,99631.00
2023-12-29T01:42:21.585Z,99629.09
2023-12-29T01:44:55.068Z,99624.78
2023-12-29T01:47:23.504Z,99611.84
2023-12-29T01:49:51.419Z,99625.69
2023-12-29T01:52:21.225Z,99614.44
2023-12-29T01:54:51.835Z,99616.22
2023-12-29T01:57:19.211Z,99611.09
2023-12-29T01:59:46.877Z,99606.75
2023-12-29T02:02:14.412Z,99605.13
2023-12-29T02:04:42.889Z,99600.84
2023-12-29T02:07:11.076Z,99593.00
2023-12-29T02:09:39.194Z,99588.50
2023-12-29T02:12:06.654Z,99594.59
2023-12-29T02:14:33.645Z,99594.56
2023-12-29T02:17:16.622Z,99595.53
2023-12-29T02:19:46.258Z,99595.53
2023-12-29T02:22:14.352Z,99589.41
2023-12-29T02:24:48.582Z,99579.78
2023-12-29T02:27:23.192Z,99581.53
2023-12-29T02:30:05.795Z,99581.59
2023-12-29T02:32:36.101Z,99582.53
2023-12-29T02:35:05.365Z,99594.78
2023-12-29T02:37:33.167Z,99600.06
2023-12-29T02:40:00.393Z,99588.81
2023-12-29T02:42:30.864Z,99592.16
2023-12-29T02:44:58.027Z,99583.56
2023-12-29T02:47:25.144Z,99585.25
2023-12-29T02:49:52.429Z,99585.25
2023-12-29T02:52:19.739Z,99579.09
2023-12-29T02:54:46.651Z,99574.72
2023-12-29T02:57:13.638Z,99579.03
2023-12-29T02:59:40.811Z,99575.47
2023-12-29T03:02:07.875Z,99567.53
2023-12-29T03:04:36.845Z,99567.53
2023-12-29T03:07:04.801Z,99571.94
2023-12-29T03:09:32.347Z,99567.66
2023-12-29T03:11:59.655Z,99560.69
2023-12-29T03:14:27.417Z,99560.63
2023-12-29T03:16:54.888Z,99563.19
2023-12-29T03:19:22.431Z,99554.44
2023-12-29T03:21:55.530Z,99565.59
2023-12-29T03:24:23.387Z,99554.25
2023-12-29T03:26:50.601Z,99549.88
2023-12-29T03:29:18.254Z,99556.63
2023-12-29T03:31:45.836Z,99553.19
2023-12-29T03:34:13.875Z,99557.66
2023-12-29T03:36:41.388Z,99565.44
2023-12-29T03:39:09.560Z,99565.50
2023-12-29T03:41:36.888Z,99565.50
2023-12-29T03:44:04.452Z,99560.34
2023-12-29T03:46:32.729Z,99563.75
2023-12-29T03:49:00.284Z,99562.94
2023-12-29T03:51:27.851Z,99562.09
2023-12-29T03:53:55.393Z,99557.81
2023-12-29T03:56:23.218Z,99562.22
2023-12-29T03:58:50.669Z,99557.09
2023-12-29T04:01:18.822Z,99559.72
2023-12-29T04:03:48.013Z,99561.38
2023-12-29T04:06:14.995Z,99561.41
2023-12-29T04:08:42.549Z,99564.09
2023-12-29T04:11:11.080Z,99562.38
2023-12-29T04:13:38.669Z,99566.00
2023-12-29T04:16:05.882Z,99566.84
2023-12-29T04:18:34.465Z,99560.00
2023-12-29T04:21:02.906Z,99565.28
2023-12-29T04:23:31.423Z,99567.94
2023-12-29T04:25:58.623Z,99567.16
2023-12-29T04:28:26.089Z,99565.47
2023-12-29T04:30:55.264Z,99570.66
2023-12-29T04:33:22.534Z,99583.66
2023-12-29T04:35:51.040Z,99583.81
2023-12-29T04:38:20.932Z,99581.28
2023-12-29T04:40:48.610Z,99573.59
2023-12-29T04:43:15.705Z,99569.13
2023-12-29T04:45:43.330Z,99563.16
2023-12-29T04:48:11.161Z,99572.69
2023-12-29T04:50:38.621Z,99577.84
2023-12-29T04:53:05.831Z,99571.72
2023-12-29T04:55:33.620Z,99568.28
2023-12-29T04:58:02.391Z,99573.59
2023-12-29T05:00:30.036Z,99566.66
2023-12-29T05:02:57.290Z,99570.16
2023-12-29T05:05:24.763Z,99568.50
2023-12-29T05:07:52.187Z,99568.53
2023-12-29T05:10:19.973Z,99571.12
2023-12-29T05:12:47.705Z,99564.19
2023-12-29T05:15:14.779Z,99564.22
2023-12-29T05:17:42.596Z,99565.03
2023-12-29T05:20:12.533Z,99559.84
2023-12-29T05:22:39.923Z,99567.56
2023-12-29T05:25:09.236Z,99567.56
2023-12-29T05:27:37.493Z,99565.91
2023-12-29T05:30:07.493Z,99568.50
2023-12-29T05:32:35.269Z,99566.69
2023-12-29T05:35:02.297Z,99571.91
2023-12-29T05:37:29.733Z,99563.31
2023-12-29T05:39:58.186Z,99575.47
2023-12-29T05:42:25.189Z,99581.50
2023-12-29T05:44:56.561Z,99586.75
2023-12-29T05:47:23.822Z,99587.63
2023-12-29T05:49:50.942Z,99584.91
2023-12-29T05:52:18.571Z,99593.59
2023-12-29T05:54:47.881Z,99588.41
2023-12-29T05:57:16.031Z,99587.56
2023-12-29T05:59:43.448Z,99585.81
2023-12-29T06:02:11.201Z,99583.19
2023-12-29T06:04:38.541Z,99579.66
2023-12-29T06:07:06.683Z,99585.56
2023-12-29T06:09:34.169Z,99585.69
2023-12-29T06:12:01.917Z,99588.28
2023-12-29T06:14:28.825Z,99598.75
2023-12-29T06:16:56.262Z,99595.22
2023-12-29T06:19:23.971Z,99598.81
2023-12-29T06:21:51.539Z,99595.34
2023-12-29T06:24:19.533Z,99602.34
2023-12-29T06:26:48.497Z,99598.81
2023-12-29T06:29:15.445Z,99604.87
2023-12-29T06:31:44.199Z,99611.00
2023-12-29T06:34:11.932Z,99610.22
2023-12-29T06:36:39.491Z,99614.63
2023-12-29T06:39:07.040Z,99608.56
2023-12-29T06:41:34.740Z,99608.56
2023-12-29T06:44:03.643Z,99614.66
2023-12-29T06:46:31.157Z,99606.03
2023-12-29T06:48:59.180Z,99606.91
2023-12-29T06:51:26.820Z,99611.22
2023-12-29T06:53:53.792Z,99607.69
2023-12-29T06:56:22.121Z,99607.66
2023-12-29T06:58:49.732Z,99609.34
2023-12-29T07:01:17.208Z,99611.00
2023-12-29T07:03:45.801Z,99611.84
2023-12-29T07:06:13.749Z,99611.81
2023-12-29T07:08:42.082Z,99611.75
2023-12-29T07:11:13.140Z,99616.88
2023-12-29T07:13:40.789Z,99609.97
2023-12-29T07:16:07.919Z,99610.81
2023-12-29T07:18:37.015Z,99615.94
2023-12-29T07:21:04.384Z,99610.69
2023-12-29T07:23:31.805Z,99606.25
2023-12-29T07:25:59.521Z,99617.47
2023-12-29T07:28:27.368Z,99623.47
2023-12-29T07:30:54.947Z,99627.75
2023-12-29T07:33:22.503Z,99619.00
2023-12-29T07:35:50.022Z,99629.34
2023-12-29T07:38:18.245Z,99630.09
2023-12-29T07:40:45.597Z,99622.16
2023-12-29T07:43:13.081Z,99626.31
2023-12-29T07:45:40.817Z,99626.28
2023-12-29T07:48:11.215Z,99611.38
2023-12-29T07:50:39.280Z,99623.31
2023-12-29T07:53:07.426Z,99618.78
2023-12-29T07:55:39.802Z,99611.69
2023-12-29T07:58:07.167Z,99609.84
2023-12-29T08:00:35.029Z,99605.28
2023-12-29T08:03:02.802Z,99605.09
2023-12-29T08:05:30.191Z,99606.63
2023-12-29T08:07:57.807Z,99603.06
2023-12-29T08:10:27.223Z,99610.69
2023-12-29T08:12:55.726Z,99614.78
2023-12-29T08:15:27.770Z,99622.44
2023-12-29T08:17:56.953Z,99626.44
2023-12-29T08:20:25.517Z,99621.94
2023-12-29T08:22:56.690Z,99628.75
2023-12-29T08:25:24.497Z,99623.47
2023-12-29T08:27:51.471Z,99629.91
2023-12-29T08:30:25.278Z,99625.38
2023-12-29T08:32:53.074Z,99625.25
2023-12-29T08:35:21.994Z,99622.50
2023-12-29T08:37:51.114Z,99636.41
2023-12-29T08:40:18.915Z,99623.69
2023-12-29T08:42:46.040Z,99630.22
2023-12-29T08:45:16.122Z,99639.66
2023-12-29T08:47:43.825Z,99627.75
2023-12-29T08:50:11.038Z,99637.16
2023-12-29T08:52:41.041Z,99627.37
2023-12-29T08:55:11.093Z,99624.25
2023-12-29T08:57:38.097Z,99627.56
2023-12-29T09:00:05.656Z,99640.13
2023-12-29T09:02:33.464Z,99626.72
2023-12-29T09:05:01.079Z,99634.47
2023-12-29T09:07:29.339Z,99634.94
2023-12-29T09:09:57.093Z,99639.25
2023-12-29T09:12:24.688Z,99632.47
2023-12-29T09:14:52.278Z,99639.25
2023-12-29T09:17:20.103Z,99639.31
2023-12-29T09:19:57.004Z,99633.75
2023-12-29T09:22:29.264Z,99629.88
2023-12-29T09:24:56.969Z,99631.69
2023-12-29T09:27:24.428Z,99623.78
2023-12-29T09:29:53.849Z,99625.88
2023-12-29T09:32:21.356Z,99611.72
2023-12-29T09:34:48.926Z,99616.69
2023-12-29T09:37:16.905Z,99626.31
2023-12-29T09:39:44.480Z,99627.06
2023-12-29T09:42:21.674Z,99621.72
2023-12-29T09:44:53.332Z,99620.72
2023-12-29T09:47:27.153Z,99632.50
2023-12-29T09:49:55.352Z,99628.16
2023-12-29T09:52:23.706Z,99625.50
2023-12-29T09:54:54.102Z,99631.47
2023-12-29T09:57:22.578Z,99626.06
2023-12-29T09:59:53.605Z,99631.03
2023-12-29T10:02:23.420Z,99628.41
2023-12-29T10:04:51.368Z,99614.47
2023-12-29T10:07:29.604Z,99616.06
2023-12-29T10:09:59.743Z,99609.00
2023-12-29T10:12:29.365Z,99602.56
2023-12-29T10:15:28.042Z,99597.81
2023-12-29T10:18:07.109Z,99599.31
2023-12-29T10:20:46.546Z,99586.84
2023-12-29T10:23:33.127Z,99585.41
2023-12-29T10:26:01.503Z,99592.53
2023-12-29T10:28:29.902Z,99592.28
2023-12-29T10:30:56.964Z,99602.19
2023-12-29T10:33:30.465Z,99597.59
2023-12-29T10:36:00.638Z,99593.03
2023-12-29T10:38:29.679Z,99594.50
2023-12-29T10:41:29.501Z,99588.38
2023-12-29T10:44:07.832Z,99584.22
2023-12-29T10:46:34.974Z,99583.31
2023-12-29T10:49:12.753Z,99571.53
2023-12-29T10:51:40.843Z,99574.16
2023-12-29T10:54:08.060Z,99562.12
2023-12-29T10:56:35.833Z,99561.91
2023-12-29T10:59:04.610Z,99558.41
2023-12-29T11:01:34.508Z,99551.66
2023-12-29T11:04:10.960Z,99556.03
2023-12-29T11:06:48.364Z,99542.75
2023-12-29T11:09:15.995Z,99540.12
2023-12-29T11:11:45.220Z,99533.47
2023-12-29T11:14:13.258Z,99531.91
2023-12-29T11:16:44.056Z,99530.50
2023-12-29T11:19:13.930Z,99537.19
2023-12-29T11:21:42.762Z,99544.56
2023-12-29T11:24:11.519Z,99544.84
2023-12-29T11:26:41.623Z,99534.31
2023-12-29T11:29:09.552Z,99528.37
2023-12-29T11:31:36.794Z,99527.28
2023-12-29T11:34:13.601Z,99525.25
2023-12-29T11:36:46.845Z,99512.47
2023-12-29T11:39:38.430Z,99509.59
2023-12-29T11:42:32.541Z,99510.03
2023-12-29T11:45:26.089Z,99505.37
2023-12-29T11:47:55.200Z,99496.25
2023-12-29T11:50:34.577Z,99506.09
2023-12-29T11:53:02.387Z,99500.19
2023-12-29T11:55:34.089Z,99496.75
2023-12-29T11:58:01.617Z,99494.47
2023-12-29T12:00:45.137Z,99494.12
2023-12-29T12:03:24.869Z,99494.25
2023-12-29T12:05:53.497Z,99493.31
2023-12-29T12:08:36.466Z,99493.28
2023-12-29T12:11:38.266Z,99487.81
2023-12-29T12:14:05.501Z,99485.72
2023-12-29T12:16:55.166Z,99484.66
2023-12-29T12:19:38.324Z,99485.63
2023-12-29T12:22:07.368Z,99490.78
2023-12-29T12:24:37.216Z,99493.59
2023-12-29T12:27:10.226Z,99485.75
2023-12-29T12:29:38.400Z,99480.88
2023-12-29T12:32:08.871Z,99481.81
2023-12-29T12:34:38.578Z,99478.13
2023-12-29T12:37:08.409Z,99477.88
2023-12-29T12:39:42.345Z,99477.41
2023-12-29T12:42:10.568Z,99477.22
2023-12-29T12:44:42.377Z,99470.56
2023-12-29T12:47:19.759Z,99474.44
2023-12-29T12:49:47.621Z,99471.81
2023-12-29T12:52:16.913Z,99476.66
2023-12-29T12:54:44.525Z,99477.44
2023-12-29T12:57:12.648Z,99484.19
2023-12-29T12:59:40.960Z,99479.38
2023-12-29T13:02:09.942Z,99479.81
2023-12-29T13:04:41.826Z,99478.38
2023-12-29T13:07:11.017Z,99472.94
2023-12-29T13:09:43.931Z,99471.25
2023-12-29T13:12:13.308Z,99465.47
2023-12-29T13:14:41.353Z,99472.12
2023-12-29T13:17:11.758Z,99461.00
2023-12-29T13:19:41.914Z,99461.88
2023-12-29T13:22:15.662Z,99448.94
2023-12-29T13:24:47.312Z,99454.97
2023-12-29T13:27:16.791Z,99449.38
2023-12-29T13:29:45.912Z,99447.75
2023-12-29T13:32:21.929Z,99448.03
2023-12-29T13:34:56.632Z,99447.16
2023-12-29T13:37:31.646Z,99447.75
2023-12-29T13:40:18.035Z,99451.50
2023-12-29T13:42:48.486Z,99448.81
2023-12-29T13:45:19.097Z,99448.22
2023-12-29T13:47:48.094Z,99437.69
2023-12-29T13:50:16.346Z,99441.66
2023-12-29T13:52:43.994Z,99450.59
2023-12-29T13:55:11.562Z,99451.50
2023-12-29T13:57:40.665Z,99448.00
2023-12-29T14:00:22.329Z,99440.06
2023-12-29T14:03:03.374Z,99433.91
2023-12-29T14:05:32.130Z,99427.22
2023-12-29T14:08:05.956Z,99434.81
2023-12-29T14:10:38.037Z,99465.56
2023-12-29T14:13:10.392Z,99475.66
2023-12-29T14:15:39.514Z,99469.66
2023-12-29T14:18:14.392Z,99467.66
2023-12-29T14:20:42.137Z,99469.88
2023-12-29T14:23:10.868Z,99472.72
2023-12-29T14:25:39.140Z,99464.78
2023-12-29T14:28:22.026Z,99459.72
2023-12-29T14:30:49.432Z,99459.03
2023-12-29T14:33:16.509Z,99455.41
2023-12-29T14:35:43.590Z,99461.31
2023-12-29T14:38:18.059Z,99453.97
2023-12-29T14:40:46.649Z,99466.56
2023-12-29T14:43:14.574Z,99470.34
2023-12-29T14:45:50.671Z,99463.53
2023-12-29T14:48:17.987Z,99474.41
2023-12-29T14:50:47.039Z,99469.56
2023-12-29T14:53:14.044Z,99468.19
2023-12-29T14:55:42.148Z,99476.31
2023-12-29T14:58:09.589Z,99480.81
2023-12-29T15:00:38.184Z,99476.53
2023-12-29T15:03:05.973Z,99481.84
2023-12-29T15:05:33.996Z,99485.66
2023-12-29T15:08:01.670Z,99484.75
2023-12-29T15:10:29.485Z,99482.31
2023-12-29T15:12:56.970Z,99485.28
2023-12-29T15:15:24.392Z,99484.66
2023-12-29T15:17:52.101Z,99482.34
2023-12-29T15:20:19.649Z,99487.00
2023-12-29T15:22:47.694Z,99484.50
2023-12-29T15:25:20.874Z,99480.50
2023-12-29T15:27:48.401Z,99480.78
2023-12-29T15:30:17.724Z,99479.91
2023-12-29T15:32:45.701Z,99485.16
2023-12-29T15:35:14.525Z,99480.19
2023-12-29T15:37:42.203Z,99490.81
2023-12-29T15:40:10.144Z,99491.00
2023-12-29T15:42:37.637Z,99492.06
2023-12-29T15:45:05.571Z,99492.31
2023-12-29T15:47:32.974Z,99495.09
2023-12-29T15:50:02.101Z,99502.06
2023-12-29T15:52:32.444Z,99503.06
2023-12-29T15:55:00.003Z,99515.50
2023-12-29T15:57:27.473Z,99509.47
2023-12-29T15:59:54.632Z,99514.00
2023-12-29T16:02:22.855Z,99510.69
2023-12-29T16:04:50.610Z,99514.28
2023-12-29T16:07:18.140Z,99506.44
2023-12-29T16:09:46.328Z,99499.44
2023-12-29T16:12:14.114Z,99501.22
2023-12-29T16:14:41.769Z,99493.34
2023-12-29T16:17:09.359Z,99499.53
2023-12-29T16:19:37.146Z,99492.66
2023-12-29T16:22:05.025Z,99498.75
2023-12-29T16:24:32.457Z,99502.38
2023-12-29T16:27:00.181Z,99502.41
2023-12-29T16:29:28.192Z,99500.66
2023-12-29T16:31:55.612Z,99497.87
2023-12-29T16:34:24.496Z,99497.13
2023-12-29T16:36:59.138Z,99497.28
2023-12-29T16:39:28.876Z,99491.34
2023-12-29T16:41:57.681Z,99494.19
2023-12-29T16:44:25.087Z,99485.72
2023-12-29T16:46:53.526Z,99483.03
2023-12-29T16:49:21.144Z,99480.19
2023-12-29T16:51:49.225Z,99481.03
2023-12-29T16:54:16.967Z,99481.19
2023-12-29T16:56:44.405Z,99481.41
2023-12-29T16:59:14.340Z,99469.47
2023-12-29T17:01:42.304Z,99466.19
2023-12-29T17:04:09.286Z,99467.13
2023-12-29T17:06:37.943Z,99463.00
2023-12-29T17:09:05.273Z,99464.91
2023-12-29T17:11:32.705Z,99462.25
2023-12-29T17:14:00.112Z,99457.31
2023-12-29T17:16:30.806Z,99459.25
2023-12-29T17:18:58.264Z,99457.59
2023-12-29T17:21:27.541Z,99463.81
2023-12-29T17:23:55.236Z,99456.00
2023-12-29T17:26:22.766Z,99461.75
2023-12-29T17:28:52.272Z,99462.56
2023-12-29T17:31:20.034Z,99460.94
2023-12-29T17:33:47.792Z,99456.66
2023-12-29T17:36:15.426Z,99455.88
2023-12-29T17:38:43.736Z,99459.41
2023-12-29T17:41:11.262Z,99461.88
2023-12-29T17:43:40.004Z,99462.09
2023-12-29T17:46:07.830Z,99458.66
2023-12-29T17:48:36.462Z,99459.69
2023-12-29T17:51:04.172Z,99458.78
2023-12-29T17:53:31.842Z,99459.81
2023-12-29T17:56:02.128Z,99460.78
2023-12-29T17:58:29.740Z,99457.16
2023-12-29T18:00:57.508Z,99457.94
2023-12-29T18:03:25.294Z,99458.91
2023-12-29T18:05:55.293Z,99470.13
2023-12-29T18:08:23.945Z,99466.78
2023-12-29T18:10:54.605Z,99467.69
2023-12-29T18:13:24.208Z,99463.44
2023-12-29T18:15:52.133Z,99457.34
2023-12-29T18:18:20.546Z,99468.44
2023-12-29T18:20:50.353Z,99464.31
2023-12-29T18:23:19.091Z,99473.16
2023-12-29T18:25:46.929Z,99470.62
2023-12-29T18:28:14.675Z,99477.66
2023-12-29T18:30:42.982Z,99475.09
2023-12-29T18:33:11.762Z,99477.72
2023-12-29T18:35:40.071Z,99464.78
2023-12-29T18:38:08.386Z,99462.78
2023-12-29T18:40:37.672Z,99457.50
2023-12-29T18:43:05.619Z,99457.50
2023-12-29T18:45:33.423Z,99452.34
2023-12-29T18:48:02.490Z,99456.53
2023-12-29T18:50:31.099Z,99454.84
2023-12-29T18:52:59.146Z,99461.28
2023-12-29T18:55:27.770Z,99459.66
2023-12-29T18:57:55.270Z,99467.56
2023-12-29T19:00:23.525Z,99472.88
2023-12-29T19:02:50.409Z,99468.63
2023-12-29T19:05:17.373Z,99462.53
2023-12-29T19:07:44.763Z,99464.25
2023-12-29T19:10:13.063Z,99452.63
2023-12-29T19:12:40.101Z,99450.69
2023-12-29T19:15:09.200Z,99456.03
2023-12-29T19:17:46.832Z,99439.59
2023-12-29T19:20:14.844Z,99452.31
2023-12-29T19:22:44.467Z,99454.59
2023-12-29T19:25:14.496Z,99451.00
2023-12-29T19:27:42.575Z,99450.16
2023-12-29T19:30:11.467Z,99448.59
2023-12-29T19:32:41.434Z,99446.97
2023-12-29T19:35:09.093Z,99447.88
2023-12-29T19:37:36.137Z,99443.56
2023-12-29T19:40:03.280Z,99444.53
2023-12-29T19:42:30.460Z,99433.31
2023-12-29T19:45:06.186Z,99428.28
2023-12-29T19:47:37.800Z,99437.97
2023-12-29T19:50:10.181Z,99432.81
2023-12-29T19:52:38.501Z,99431.22
2023-12-29T19:55:08.650Z,99437.34
2023-12-29T19:57:38.044Z,99436.56
2023-12-29T20:00:09.910Z,99429.69
2023-12-29T20:02:38.108Z,99440.25
2023-12-29T20:05:06.074Z,99436.09
2023-12-29T20:07:33.598Z,99432.69
2023-12-29T20:10:00.949Z,99434.50
2023-12-29T20:12:29.894Z,99434.63
2023-12-29T20:14:58.408Z,99434.66
2023-12-29T20:17:25.633Z,99447.69
2023-12-29T20:19:53.445Z,99454.69
2023-12-29T20:22:23.291Z,99441.56
2023-12-29T20:24:50.732Z,99444.94
2023-12-29T20:27:18.147Z,99448.34
2023-12-29T20:29:45.560Z,99444.03
2023-12-29T20:32:13.369Z,99450.09
2023-12-29T20:34:40.839Z,99445.72
2023-12-29T20:37:07.870Z,99437.97
2023-12-29T20:39:35.138Z,99440.56
2023-12-29T20:42:02.063Z,99438.03
2023-12-29T20:44:28.966Z,99433.59
2023-12-29T20:46:56.138Z,99431.16
2023-12-29T20:49:24.056Z,99427.66
2023-12-29T20:51:51.597Z,99426.03
2023-12-29T20:54:18.896Z,99426.25
2023-12-29T20:56:45.909Z,99435.94
2023-12-29T20:59:12.775Z,99431.66
2023-12-29T21:01:41.251Z,99427.25
2023-12-29T21:04:11.747Z,99423.75
2023-12-29T21:06:39.428Z,99429.91
2023-12-29T21:09:06.937Z,99427.34
2023-12-29T21:11:34.000Z,99415.28
2023-12-29T21:14:01.370Z,99423.94
2023-12-29T21:16:28.463Z,99419.56
2023-12-29T21:18:56.403Z,99411.88
2023-12-29T21:21:25.364Z,99405.03
2023-12-29T21:23:56.128Z,99405.94
2023-12-29T21:26:24.915Z,99405.94
2023-12-29T21:28:51.881Z,99408.34
2023-12-29T21:31:20.340Z,99401.44
2023-12-29T21:33:47.867Z,99408.25
2023-12-29T21:36:25.241Z,99405.75
2023-12-29T21:38:54.519Z,99396.38
2023-12-29T21:41:21.770Z,99402.31
2023-12-29T21:43:52.123Z,99398.06
2023-12-29T21:46:19.926Z,99395.50
2023-12-29T21:48:47.608Z,99404.22
2023-12-29T21:51:15.303Z,99400.78
2023-12-29T21:53:43.979Z,99401.63
2023-12-29T21:56:11.846Z,99398.87
2023-12-29T21:58:39.230Z,99401.47
2023-12-29T22:01:32.658Z,99409.00
2023-12-29T22:04:00.561Z,99397.97
2023-12-29T22:06:28.001Z,99386.50
2023-12-29T22:08:54.969Z,99394.75
2023-12-29T22:11:22.202Z,99393.19
2023-12-29T22:13:49.131Z,99399.47
2023-12-29T22:16:16.466Z,99404.88
2023-12-29T22:18:43.773Z,99400.47
2023-12-29T22:21:19.282Z,99396.03
2023-12-29T22:23:47.621Z,99391.75
2023-12-29T22:26:15.377Z,99389.84
2023-12-29T22:28:44.573Z,99385.50
2023-12-29T22:31:13.327Z,99388.00
2023-12-29T22:33:42.366Z,99378.47
2023-12-29T22:36:17.636Z,99381.88
2023-12-29T22:38:45.675Z,99394.00
2023-12-29T22:41:18.127Z,99402.88
2023-12-29T22:43:47.079Z,99402.03
2023-12-29T22:46:22.317Z,99394.41
2023-12-29T22:48:53.409Z,99392.00
2023-12-29T22:51:20.721Z,99396.97
2023-12-29T22:53:47.672Z,99392.72
2023-12-29T22:56:16.420Z,99390.00
2023-12-29T22:58:43.305Z,99398.87
2023-12-29T23:01:10.468Z,99384.31
2023-12-29T23:03:37.708Z,99382.50
2023-12-29T23:06:04.728Z,99379.91
2023-12-29T23:08:32.721Z,99374.00
2023-12-29T23:11:00.293Z,99369.69
2023-12-29T23:13:29.028Z,99368.94
2023-12-29T23:15:57.342Z,99366.53
2023-12-29T23:18:24.569Z,99367.47
2023-12-29T23:20:51.859Z,99364.06
2023-12-29T23:23:18.792Z,99360.66
2023-12-29T23:25:45.937Z,99353.47
2023-12-29T23:28:12.978Z,99369.94
2023-12-29T23:30:40.050Z,99361.56
2023-12-29T23:33:07.884Z,99361.69
2023-12-29T23:35:34.956Z,99361.72
2023-12-29T23:38:01.954Z,99356.50
2023-12-29T23:40:29.261Z,99358.31
2023-12-29T23:42:56.222Z,99353.22
2023-12-29T23:45:23.179Z,99355.00
2023-12-29T23:47:50.517Z,99355.84
2023-12-29T23:50:18.284Z,99352.44
2023-12-29T23:52:45.794Z,99354.19
2023-12-29T23:55:13.288Z,99349.84
2023-12-29T23:57:40.754Z,99355.00
